sensor_id;sensor_type;location;lat;lon;timestamp;pressure;altitude;pressure_sealevel;temperature;humidity
6532;BME280;3299;42.004;24.868;2022-12-16T00:00:25;98147.88;;;6.06;100.00
6532;BME280;3299;42.004;24.868;2022-12-16T00:02:51;98183.00;;;6.21;100.00
6532;BME280;3299;42.004;24.868;2022-12-16T00:05:17;98225.09;;;6.49;100.00
6532;BME280;3299;42.004;24.868;2022-12-16T00:07:47;98226.50;;;6.39;100.00
6532;BME280;3299;42.004;24.868;2022-12-16T00:10:12;98185.56;;;6.21;100.00
6532;BME280;3299;42.004;24.868;2022-12-16T00:12:38;98111.41;;;5.68;100.00
6532;BME280;3299;42.004;24.868;2022-12-16T00:15:04;98213.25;;;6.31;100.00
6532;BME280;3299;42.004;24.868;2022-12-16T00:17:29;98190.97;;;6.16;100.00
6532;BME280;3299;42.004;24.868;2022-12-16T00:19:55;98235.75;;;6.57;100.00
6532;BME280;3299;42.004;24.868;2022-12-16T00:22:21;98194.09;;;6.21;100.00
6532;BME280;3299;42.004;24.868;2022-12-16T00:24:46;98254.81;;;6.53;100.00
6532;BME280;3299;42.004;24.868;2022-12-16T00:27:12;98212.41;;;6.15;100.00
6532;BME280;3299;42.004;24.868;2022-12-16T00:29:37;98182.00;;;5.92;100.00
6532;BME280;3299;42.004;24.868;2022-12-16T00:32:03;98256.41;;;6.40;100.00
6532;BME280;3299;42.004;24.868;2022-12-16T00:34:28;98207.28;;;6.15;100.00
6532;BME280;3299;42.004;24.868;2022-12-16T00:36:54;98245.22;;;6.41;100.00
6532;BME280;3299;42.004;24.868;2022-12-16T00:39:19;98261.81;;;6.51;100.00
6532;BME280;3299;42.004;24.868;2022-12-16T00:41:45;98264.28;;;6.53;100.00
6532;BME280;3299;42.004;24.868;2022-12-16T00:44:12;98220.53;;;6.23;100.00
6532;BME280;3299;42.004;24.868;2022-12-16T00:46:37;98202.47;;;6.09;100.00
6532;BME280;3299;42.004;24.868;2022-12-16T00:49:04;98210.66;;;6.16;100.00
6532;BME280;3299;42.004;24.868;2022-12-16T00:51:29;98229.47;;;6.32;100.00
6532;BME280;3299;42.004;24.868;2022-12-16T00:53:54;98194.78;;;6.09;100.00
6532;BME280;3299;42.004;24.868;2022-12-16T00:56:20;98180.63;;;6.02;100.00
6532;BME280;3299;42.004;24.868;2022-12-16T00:58:45;98218.63;;;6.27;100.00
6532;BME280;3299;42.004;24.868;2022-12-16T01:01:11;98225.84;;;6.36;100.00
6532;BME280;3299;42.004;24.868;2022-12-16T01:03:38;98143.84;;;5.86;100.00
6532;BME280;3299;42.004;24.868;2022-12-16T01:06:12;98183.97;;;6.18;100.00
6532;BME280;3299;42.004;24.868;2022-12-16T01:08:37;98198.00;;;6.28;100.00
6532;BME280;3299;42.004;24.868;2022-12-16T01:11:03;98226.91;;;6.47;100.00
6532;BME280;3299;42.004;24.868;2022-12-16T01:13:29;98159.41;;;6.14;100.00
6532;BME280;3299;42.004;24.868;2022-12-16T01:15:58;98204.69;;;6.46;100.00
6532;BME280;3299;42.004;24.868;2022-12-16T01:18:24;98198.47;;;6.50;100.00
6532;BME280;3299;42.004;24.868;2022-12-16T01:20:49;98163.69;;;6.29;100.00
6532;BME280;3299;42.004;24.868;2022-12-16T01:23:15;98221.00;;;6.61;100.00
6532;BME280;3299;42.004;24.868;2022-12-16T01:25:40;98174.88;;;6.28;100.00
6532;BME280;3299;42.004;24.868;2022-12-16T01:28:06;98178.03;;;6.33;100.00
6532;BME280;3299;42.004;24.868;2022-12-16T01:30:31;98232.13;;;6.61;100.00
6532;BME280;3299;42.004;24.868;2022-12-16T01:32:57;98199.81;;;6.42;100.00
6532;BME280;3299;42.004;24.868;2022-12-16T01:35:22;98240.56;;;6.63;100.00
6532;BME280;3299;42.004;24.868;2022-12-16T01:37:48;98238.72;;;6.65;100.00
6532;BME280;3299;42.004;24.868;2022-12-16T01:40:19;98231.28;;;6.61;100.00
6532;BME280;3299;42.004;24.868;2022-12-16T01:42:45;98248.78;;;6.70;100.00
6532;BME280;3299;42.004;24.868;2022-12-16T01:47:56;98198.38;;;6.36;100.00
6532;BME280;3299;42.004;24.868;2022-12-16T01:50:24;98253.25;;;6.66;100.00
6532;BME280;3299;42.004;24.868;2022-12-16T01:52:53;98211.75;;;6.43;100.00
6532;BME280;3299;42.004;24.868;2022-12-16T01:55:42;98263.22;;;6.72;100.00
6532;BME280;3299;42.004;24.868;2022-12-16T01:58:18;98253.81;;;6.71;100.00
6532;BME280;3299;42.004;24.868;2022-12-16T02:00:45;98198.03;;;6.42;100.00
6532;BME280;3299;42.004;24.868;2022-12-16T02:03:10;98156.84;;;6.14;100.00
6532;BME280;3299;42.004;24.868;2022-12-16T02:05:38;98207.09;;;6.49;100.00
6532;BME280;3299;42.004;24.868;2022-12-16T02:16:02;98219.84;;;6.51;100.00
6532;BME280;3299;42.004;24.868;2022-12-16T02:18:51;98210.09;;;6.42;100.00
6532;BME280;3299;42.004;24.868;2022-12-16T02:37:28;98137.13;;;5.99;100.00
6532;BME280;3299;42.004;24.868;2022-12-16T02:40:00;98196.97;;;6.46;100.00
6532;BME280;3299;42.004;24.868;2022-12-16T02:42:30;98196.81;;;6.49;100.00
6532;BME280;3299;42.004;24.868;2022-12-16T02:45:02;98160.28;;;6.29;100.00
6532;BME280;3299;42.004;24.868;2022-12-16T02:47:29;98208.41;;;6.56;100.00
6532;BME280;3299;42.004;24.868;2022-12-16T02:49:55;98074.16;;;5.77;100.00
6532;BME280;3299;42.004;24.868;2022-12-16T02:52:23;98203.44;;;6.53;100.00
6532;BME280;3299;42.004;24.868;2022-12-16T02:54:53;98159.31;;;6.31;100.00
6532;BME280;3299;42.004;24.868;2022-12-16T03:00:12;98176.09;;;6.37;100.00
6532;BME280;3299;42.004;24.868;2022-12-16T03:05:44;98204.75;;;6.60;100.00
6532;BME280;3299;42.004;24.868;2022-12-16T03:08:16;98192.50;;;6.50;100.00
6532;BME280;3299;42.004;24.868;2022-12-16T03:10:50;98154.25;;;6.30;100.00
6532;BME280;3299;42.004;24.868;2022-12-16T03:13:18;98143.31;;;6.26;100.00
6532;BME280;3299;42.004;24.868;2022-12-16T03:15:46;98151.69;;;6.30;100.00
6532;BME280;3299;42.004;24.868;2022-12-16T03:18:14;98149.03;;;6.31;100.00
6532;BME280;3299;42.004;24.868;2022-12-16T03:20:54;98196.63;;;6.52;100.00
6532;BME280;3299;42.004;24.868;2022-12-16T03:23:53;98181.56;;;6.46;100.00
6532;BME280;3299;42.004;24.868;2022-12-16T03:26:35;98108.53;;;5.90;100.00
6532;BME280;3299;42.004;24.868;2022-12-16T03:29:15;98156.50;;;6.20;100.00
6532;BME280;3299;42.004;24.868;2022-12-16T03:32:02;98202.63;;;6.53;100.00
6532;BME280;3299;42.004;24.868;2022-12-16T03:34:47;98207.25;;;6.46;100.00
6532;BME280;3299;42.004;24.868;2022-12-16T03:37:15;98215.69;;;6.48;100.00
6532;BME280;3299;42.004;24.868;2022-12-16T03:39:46;98160.72;;;6.21;100.00
6532;BME280;3299;42.004;24.868;2022-12-16T03:42:14;98184.47;;;6.40;100.00
6532;BME280;3299;42.004;24.868;2022-12-16T03:44:41;98149.28;;;6.11;100.00
6532;BME280;3299;42.004;24.868;2022-12-16T03:47:07;98202.44;;;6.40;100.00
6532;BME280;3299;42.004;24.868;2022-12-16T03:49:33;98158.28;;;6.18;100.00
6532;BME280;3299;42.004;24.868;2022-12-16T03:51:58;98211.66;;;6.44;100.00
6532;BME280;3299;42.004;24.868;2022-12-16T03:54:24;98218.38;;;6.47;100.00
6532;BME280;3299;42.004;24.868;2022-12-16T03:56:50;98168.31;;;6.07;100.00
6532;BME280;3299;42.004;24.868;2022-12-16T03:59:15;98191.63;;;6.20;100.00
6532;BME280;3299;42.004;24.868;2022-12-16T04:01:41;98219.72;;;6.38;100.00
6532;BME280;3299;42.004;24.868;2022-12-16T04:04:06;98207.28;;;6.31;100.00
6532;BME280;3299;42.004;24.868;2022-12-16T04:06:32;98198.91;;;6.27;100.00
6532;BME280;3299;42.004;24.868;2022-12-16T04:08:57;98210.69;;;6.31;100.00
6532;BME280;3299;42.004;24.868;2022-12-16T04:11:22;98198.97;;;6.26;100.00
6532;BME280;3299;42.004;24.868;2022-12-16T04:14:07;98197.84;;;6.31;100.00
6532;BME280;3299;42.004;24.868;2022-12-16T04:16:52;98196.16;;;6.30;100.00
6532;BME280;3299;42.004;24.868;2022-12-16T04:19:37;98244.22;;;6.59;100.00
6532;BME280;3299;42.004;24.868;2022-12-16T04:22:41;98185.00;;;6.31;100.00
6532;BME280;3299;42.004;24.868;2022-12-16T04:25:35;98232.94;;;6.62;100.00
6532;BME280;3299;42.004;24.868;2022-12-16T04:28:01;98171.00;;;6.21;100.00
6532;BME280;3299;42.004;24.868;2022-12-16T04:30:29;98228.78;;;6.59;100.00
6532;BME280;3299;42.004;24.868;2022-12-16T04:33:01;98178.34;;;6.27;100.00
6532;BME280;3299;42.004;24.868;2022-12-16T04:35:45;98236.59;;;6.58;100.00
6532;BME280;3299;42.004;24.868;2022-12-16T04:38:30;98241.16;;;6.53;100.00
6532;BME280;3299;42.004;24.868;2022-12-16T04:41:14;98203.88;;;6.30;100.00
6532;BME280;3299;42.004;24.868;2022-12-16T04:43:58;98203.63;;;6.19;100.00
6532;BME280;3299;42.004;24.868;2022-12-16T04:46:42;98261.28;;;6.45;100.00
6532;BME280;3299;42.004;24.868;2022-12-16T04:49:26;98205.59;;;5.99;100.00
6532;BME280;3299;42.004;24.868;2022-12-16T04:52:10;98258.97;;;6.40;100.00
6532;BME280;3299;42.004;24.868;2022-12-16T04:54:54;98204.88;;;6.12;100.00
6532;BME280;3299;42.004;24.868;2022-12-16T04:57:38;98260.06;;;6.36;100.00
6532;BME280;3299;42.004;24.868;2022-12-16T05:00:21;98246.78;;;6.44;100.00
6532;BME280;3299;42.004;24.868;2022-12-16T05:03:06;98242.91;;;6.37;100.00
6532;BME280;3299;42.004;24.868;2022-12-16T05:05:50;98263.47;;;6.52;100.00
6532;BME280;3299;42.004;24.868;2022-12-16T05:08:34;98262.72;;;6.50;100.00
6532;BME280;3299;42.004;24.868;2022-12-16T05:11:18;98252.19;;;6.39;100.00
6532;BME280;3299;42.004;24.868;2022-12-16T05:14:02;98250.34;;;6.41;100.00
6532;BME280;3299;42.004;24.868;2022-12-16T05:16:46;98241.41;;;6.48;100.00
6532;BME280;3299;42.004;24.868;2022-12-16T05:19:30;98204.53;;;6.18;100.00
6532;BME280;3299;42.004;24.868;2022-12-16T05:22:14;98266.88;;;6.37;100.00
6532;BME280;3299;42.004;24.868;2022-12-16T05:24:58;98254.75;;;6.39;100.00
6532;BME280;3299;42.004;24.868;2022-12-16T05:27:41;98204.13;;;6.10;100.00
6532;BME280;3299;42.004;24.868;2022-12-16T05:30:25;98257.25;;;6.41;100.00
6532;BME280;3299;42.004;24.868;2022-12-16T05:33:09;98198.81;;;6.13;100.00
6532;BME280;3299;42.004;24.868;2022-12-16T05:35:53;98243.75;;;6.53;100.00
6532;BME280;3299;42.004;24.868;2022-12-16T05:38:37;98132.47;;;6.06;100.00
6532;BME280;3299;42.004;24.868;2022-12-16T05:41:21;98143.06;;;6.15;100.00
6532;BME280;3299;42.004;24.868;2022-12-16T05:44:05;98195.31;;;6.45;100.00
6532;BME280;3299;42.004;24.868;2022-12-16T05:46:49;98237.00;;;6.66;100.00
6532;BME280;3299;42.004;24.868;2022-12-16T05:49:33;98207.09;;;6.49;100.00
6532;BME280;3299;42.004;24.868;2022-12-16T05:52:17;98252.91;;;6.72;100.00
6532;BME280;3299;42.004;24.868;2022-12-16T05:55:00;98213.88;;;6.50;100.00
6532;BME280;3299;42.004;24.868;2022-12-16T05:57:50;98275.19;;;6.87;100.00
6532;BME280;3299;42.004;24.868;2022-12-16T06:00:35;98225.00;;;6.66;100.00
6532;BME280;3299;42.004;24.868;2022-12-16T06:03:19;98243.28;;;6.76;100.00
6532;BME280;3299;42.004;24.868;2022-12-16T06:06:03;98281.84;;;6.91;100.00
6532;BME280;3299;42.004;24.868;2022-12-16T06:08:47;98268.56;;;6.83;100.00
6532;BME280;3299;42.004;24.868;2022-12-16T06:11:31;98179.34;;;6.40;100.00
6532;BME280;3299;42.004;24.868;2022-12-16T06:14:15;98242.72;;;6.71;100.00
6532;BME280;3299;42.004;24.868;2022-12-16T06:16:59;98237.00;;;6.66;100.00
6532;BME280;3299;42.004;24.868;2022-12-16T06:19:46;98259.44;;;6.78;100.00
6532;BME280;3299;42.004;24.868;2022-12-16T06:22:30;98287.13;;;7.04;100.00
6532;BME280;3299;42.004;24.868;2022-12-16T06:25:14;98293.09;;;7.04;100.00
6532;BME280;3299;42.004;24.868;2022-12-16T06:27:58;98292.94;;;7.07;100.00
6532;BME280;3299;42.004;24.868;2022-12-16T06:30:41;98255.63;;;6.85;100.00
6532;BME280;3299;42.004;24.868;2022-12-16T06:33:26;98313.81;;;7.17;100.00
6532;BME280;3299;42.004;24.868;2022-12-16T06:36:10;98308.66;;;7.17;100.00
6532;BME280;3299;42.004;24.868;2022-12-16T06:38:54;98290.59;;;7.03;100.00
6532;BME280;3299;42.004;24.868;2022-12-16T06:41:38;98287.38;;;6.99;100.00
6532;BME280;3299;42.004;24.868;2022-12-16T06:44:22;98298.56;;;6.98;100.00
6532;BME280;3299;42.004;24.868;2022-12-16T06:47:05;98299.56;;;6.96;100.00
6532;BME280;3299;42.004;24.868;2022-12-16T06:49:49;98307.53;;;6.91;100.00
6532;BME280;3299;42.004;24.868;2022-12-16T06:52:33;98350.81;;;7.14;100.00
6532;BME280;3299;42.004;24.868;2022-12-16T06:55:17;98298.91;;;6.92;100.00
6532;BME280;3299;42.004;24.868;2022-12-16T06:58:01;98297.66;;;6.99;100.00
6532;BME280;3299;42.004;24.868;2022-12-16T07:00:45;98340.00;;;7.39;100.00
6532;BME280;3299;42.004;24.868;2022-12-16T07:03:29;98336.50;;;7.40;100.00
6532;BME280;3299;42.004;24.868;2022-12-16T07:06:13;98332.47;;;7.50;100.00
6532;BME280;3299;42.004;24.868;2022-12-16T07:08:57;98276.44;;;7.25;100.00
6532;BME280;3299;42.004;24.868;2022-12-16T07:11:41;98280.13;;;7.35;100.00
6532;BME280;3299;42.004;24.868;2022-12-16T07:14:27;98330.72;;;7.80;100.00
6532;BME280;3299;42.004;24.868;2022-12-16T07:17:11;98266.16;;;7.39;100.00
6532;BME280;3299;42.004;24.868;2022-12-16T07:19:55;98247.72;;;7.17;100.00
6532;BME280;3299;42.004;24.868;2022-12-16T07:22:43;98365.00;;;7.80;100.00
6532;BME280;3299;42.004;24.868;2022-12-16T07:25:28;98366.41;;;7.86;100.00
6532;BME280;3299;42.004;24.868;2022-12-16T07:28:12;98318.06;;;7.61;100.00
6532;BME280;3299;42.004;24.868;2022-12-16T07:30:56;98370.94;;;7.96;100.00
6532;BME280;3299;42.004;24.868;2022-12-16T07:33:40;98331.00;;;7.89;100.00
6532;BME280;3299;42.004;24.868;2022-12-16T07:36:24;98360.69;;;8.24;100.00
6532;BME280;3299;42.004;24.868;2022-12-16T07:39:08;98361.22;;;8.29;100.00
6532;BME280;3299;42.004;24.868;2022-12-16T07:41:51;98360.94;;;8.20;100.00
6532;BME280;3299;42.004;24.868;2022-12-16T07:44:35;98308.69;;;7.74;100.00
6532;BME280;3299;42.004;24.868;2022-12-16T07:47:19;98334.66;;;7.99;100.00
6532;BME280;3299;42.004;24.868;2022-12-16T07:50:03;98373.56;;;8.24;100.00
6532;BME280;3299;42.004;24.868;2022-12-16T07:52:58;98340.56;;;8.01;100.00
6532;BME280;3299;42.004;24.868;2022-12-16T07:55:43;98381.84;;;8.29;100.00
6532;BME280;3299;42.004;24.868;2022-12-16T07:58:27;98378.34;;;8.30;100.00
6532;BME280;3299;42.004;24.868;2022-12-16T08:01:11;98351.31;;;8.08;100.00
6532;BME280;3299;42.004;24.868;2022-12-16T08:03:55;98358.41;;;8.04;100.00
6532;BME280;3299;42.004;24.868;2022-12-16T08:06:40;98396.03;;;8.36;100.00
6532;BME280;3299;42.004;24.868;2022-12-16T08:09:23;98365.25;;;8.19;100.00
6532;BME280;3299;42.004;24.868;2022-12-16T08:12:07;98396.38;;;8.44;100.00
6532;BME280;3299;42.004;24.868;2022-12-16T08:14:51;98399.16;;;8.41;100.00
6532;BME280;3299;42.004;24.868;2022-12-16T08:17:35;98363.25;;;8.24;100.00
6532;BME280;3299;42.004;24.868;2022-12-16T08:20:19;98377.59;;;8.28;100.00
6532;BME280;3299;42.004;24.868;2022-12-16T08:23:03;98376.69;;;8.29;100.00
6532;BME280;3299;42.004;24.868;2022-12-16T08:25:47;98328.25;;;8.06;100.00
6532;BME280;3299;42.004;24.868;2022-12-16T08:28:31;98329.63;;;8.12;100.00
6532;BME280;3299;42.004;24.868;2022-12-16T08:31:15;98324.00;;;8.05;100.00
6532;BME280;3299;42.004;24.868;2022-12-16T08:33:59;98373.63;;;8.37;100.00
6532;BME280;3299;42.004;24.868;2022-12-16T08:36:43;98326.59;;;8.19;100.00
6532;BME280;3299;42.004;24.868;2022-12-16T08:39:26;98368.94;;;8.43;100.00
6532;BME280;3299;42.004;24.868;2022-12-16T08:42:10;98329.25;;;8.18;100.00
6532;BME280;3299;42.004;24.868;2022-12-16T08:44:54;98360.41;;;8.29;100.00
6532;BME280;3299;42.004;24.868;2022-12-16T08:47:38;98307.81;;;8.03;100.00
6532;BME280;3299;42.004;24.868;2022-12-16T08:50:22;98341.25;;;8.33;100.00
6532;BME280;3299;42.004;24.868;2022-12-16T08:53:06;98332.69;;;8.32;100.00
6532;BME280;3299;42.004;24.868;2022-12-16T08:55:50;98256.00;;;7.94;100.00
6532;BME280;3299;42.004;24.868;2022-12-16T08:58:34;98287.09;;;8.19;100.00
6532;BME280;3299;42.004;24.868;2022-12-16T09:01:18;98270.47;;;8.24;100.00
6532;BME280;3299;42.004;24.868;2022-12-16T09:04:02;98285.91;;;8.38;100.00
6532;BME280;3299;42.004;24.868;2022-12-16T09:06:46;98338.63;;;8.75;100.00
6532;BME280;3299;42.004;24.868;2022-12-16T09:09:30;98285.97;;;8.51;100.00
6532;BME280;3299;42.004;24.868;2022-12-16T09:12:13;98328.69;;;8.95;100.00
6532;BME280;3299;42.004;24.868;2022-12-16T09:14:57;98288.44;;;8.66;100.00
6532;BME280;3299;42.004;24.868;2022-12-16T09:17:41;98271.56;;;8.61;100.00
6532;BME280;3299;42.004;24.868;2022-12-16T09:20:25;98315.16;;;8.92;100.00
6532;BME280;3299;42.004;24.868;2022-12-16T09:23:09;98237.00;;;8.51;100.00
6532;BME280;3299;42.004;24.868;2022-12-16T09:25:53;98266.19;;;8.78;100.00
6532;BME280;3299;42.004;24.868;2022-12-16T09:28:37;98281.31;;;8.96;100.00
6532;BME280;3299;42.004;24.868;2022-12-16T09:31:21;98244.53;;;8.80;100.00
6532;BME280;3299;42.004;24.868;2022-12-16T09:34:05;98242.47;;;8.85;100.00
6532;BME280;3299;42.004;24.868;2022-12-16T09:36:49;98244.56;;;8.93;100.00
6532;BME280;3299;42.004;24.868;2022-12-16T09:39:33;98206.75;;;8.79;100.00
6532;BME280;3299;42.004;24.868;2022-12-16T09:51:42;98239.69;;;9.15;100.00
6532;BME280;3299;42.004;24.868;2022-12-16T09:54:30;98267.50;;;9.36;100.00
6532;BME280;3299;42.004;24.868;2022-12-16T09:57:19;98228.31;;;9.17;100.00
6532;BME280;3299;42.004;24.868;2022-12-16T10:00:06;98289.91;;;9.48;100.00
6532;BME280;3299;42.004;24.868;2022-12-16T10:02:56;98238.03;;;9.26;100.00
6532;BME280;3299;42.004;24.868;2022-12-16T10:14:59;98190.00;;;9.24;100.00
6532;BME280;3299;42.004;24.868;2022-12-16T10:17:45;98227.41;;;9.43;100.00
6532;BME280;3299;42.004;24.868;2022-12-16T10:20:50;98253.34;;;9.54;100.00
6532;BME280;3299;42.004;24.868;2022-12-16T10:29:43;98216.56;;;9.38;100.00
6532;BME280;3299;42.004;24.868;2022-12-16T10:35:29;98245.50;;;9.56;100.00
6532;BME280;3299;42.004;24.868;2022-12-16T10:38:45;98244.38;;;9.60;100.00
6532;BME280;3299;42.004;24.868;2022-12-16T10:41:34;98248.59;;;9.73;100.00
6532;BME280;3299;42.004;24.868;2022-12-16T10:47:03;98230.50;;;9.73;100.00
6532;BME280;3299;42.004;24.868;2022-12-16T10:49:47;98209.25;;;9.57;100.00
6532;BME280;3299;42.004;24.868;2022-12-16T10:52:33;98212.56;;;9.59;100.00
6532;BME280;3299;42.004;24.868;2022-12-16T10:56:02;98245.81;;;9.76;100.00
6532;BME280;3299;42.004;24.868;2022-12-16T10:58:36;98233.13;;;9.61;100.00
6532;BME280;3299;42.004;24.868;2022-12-16T11:01:26;98246.13;;;9.59;100.00
6532;BME280;3299;42.004;24.868;2022-12-16T11:07:36;98243.66;;;9.45;100.00
6532;BME280;3299;42.004;24.868;2022-12-16T11:10:30;98242.66;;;9.21;100.00
6532;BME280;3299;42.004;24.868;2022-12-16T11:18:59;98261.38;;;9.37;100.00
6532;BME280;3299;42.004;24.868;2022-12-16T11:21:43;98222.00;;;9.21;100.00
6532;BME280;3299;42.004;24.868;2022-12-16T11:24:28;98268.19;;;9.38;100.00
6532;BME280;3299;42.004;24.868;2022-12-16T11:27:15;98222.13;;;9.20;100.00
6532;BME280;3299;42.004;24.868;2022-12-16T11:30:19;98268.84;;;9.54;100.00
6532;BME280;3299;42.004;24.868;2022-12-16T11:33:13;98255.09;;;9.41;100.00
6532;BME280;3299;42.004;24.868;2022-12-16T11:36:10;98217.47;;;9.25;100.00
6532;BME280;3299;42.004;24.868;2022-12-16T11:38:57;98212.00;;;9.17;100.00
6532;BME280;3299;42.004;24.868;2022-12-16T11:41:49;98227.81;;;9.12;100.00
6532;BME280;3299;42.004;24.868;2022-12-16T11:44:39;98270.06;;;9.36;100.00
6532;BME280;3299;42.004;24.868;2022-12-16T11:50:17;98219.34;;;9.23;100.00
6532;BME280;3299;42.004;24.868;2022-12-16T11:53:04;98255.63;;;9.58;100.00
6532;BME280;3299;42.004;24.868;2022-12-16T11:55:51;98208.94;;;9.37;100.00
6532;BME280;3299;42.004;24.868;2022-12-16T12:01:32;98192.91;;;9.19;100.00
6532;BME280;3299;42.004;24.868;2022-12-16T12:04:18;98151.38;;;8.97;100.00
6532;BME280;3299;42.004;24.868;2022-12-16T12:10:38;98228.38;;;9.55;100.00
6532;BME280;3299;42.004;24.868;2022-12-16T12:13:49;98199.31;;;9.39;100.00
6532;BME280;3299;42.004;24.868;2022-12-16T12:19:44;98232.28;;;9.60;100.00
6532;BME280;3299;42.004;24.868;2022-12-16T12:22:36;98198.19;;;9.43;100.00
6532;BME280;3299;42.004;24.868;2022-12-16T12:25:27;98243.66;;;9.70;100.00
6532;BME280;3299;42.004;24.868;2022-12-16T12:28:32;98191.59;;;9.39;100.00
6532;BME280;3299;42.004;24.868;2022-12-16T12:34:29;98230.22;;;9.65;100.00
6532;BME280;3299;42.004;24.868;2022-12-16T12:40:18;98218.22;;;9.39;100.00
6532;BME280;3299;42.004;24.868;2022-12-16T12:43:17;98232.78;;;9.52;100.00
6532;BME280;3299;42.004;24.868;2022-12-16T12:46:30;98223.81;;;9.58;100.00
6532;BME280;3299;42.004;24.868;2022-12-16T12:55:22;98193.66;;;9.46;100.00
6532;BME280;3299;42.004;24.868;2022-12-16T12:58:09;98235.81;;;9.72;100.00
6532;BME280;3299;42.004;24.868;2022-12-16T13:00:56;98241.59;;;9.75;100.00
6532;BME280;3299;42.004;24.868;2022-12-16T13:03:49;98254.19;;;9.79;100.00
6532;BME280;3299;42.004;24.868;2022-12-16T13:06:38;98235.38;;;9.77;100.00
6532;BME280;3299;42.004;24.868;2022-12-16T13:09:33;98245.06;;;9.74;100.00
6532;BME280;3299;42.004;24.868;2022-12-16T13:12:26;98204.09;;;9.57;100.00
6532;BME280;3299;42.004;24.868;2022-12-16T13:15:40;98263.06;;;9.88;100.00
6532;BME280;3299;42.004;24.868;2022-12-16T13:18:28;98252.63;;;9.77;100.00
6532;BME280;3299;42.004;24.868;2022-12-16T13:24:37;98243.44;;;9.73;100.00
6532;BME280;3299;42.004;24.868;2022-12-16T13:27:22;98236.44;;;9.75;100.00
6532;BME280;3299;42.004;24.868;2022-12-16T13:33:03;98255.03;;;9.80;100.00
6532;BME280;3299;42.004;24.868;2022-12-16T13:35:56;98244.69;;;9.80;100.00
6532;BME280;3299;42.004;24.868;2022-12-16T13:38:45;98211.84;;;9.57;100.00
6532;BME280;3299;42.004;24.868;2022-12-16T13:53:18;98237.84;;;9.54;100.00
6532;BME280;3299;42.004;24.868;2022-12-16T13:56:04;98231.47;;;9.60;100.00
6532;BME280;3299;42.004;24.868;2022-12-16T13:58:58;98286.66;;;9.83;100.00
6532;BME280;3299;42.004;24.868;2022-12-16T14:04:34;98278.28;;;9.80;100.00
6532;BME280;3299;42.004;24.868;2022-12-16T14:07:21;98235.28;;;9.54;100.00
6532;BME280;3299;42.004;24.868;2022-12-16T14:10:08;98268.22;;;9.75;100.00
6532;BME280;3299;42.004;24.868;2022-12-16T14:16:53;98281.44;;;9.58;100.00
6532;BME280;3299;42.004;24.868;2022-12-16T14:25:41;98231.44;;;9.22;100.00
6532;BME280;3299;42.004;24.868;2022-12-16T14:28:36;98284.75;;;9.48;100.00
6532;BME280;3299;42.004;24.868;2022-12-16T14:31:25;98259.25;;;9.44;100.00
6532;BME280;3299;42.004;24.868;2022-12-16T14:37:16;98226.75;;;9.02;100.00
6532;BME280;3299;42.004;24.868;2022-12-16T14:40:17;98272.53;;;9.25;100.00
6532;BME280;3299;42.004;24.868;2022-12-16T14:43:01;98255.06;;;9.16;100.00
6532;BME280;3299;42.004;24.868;2022-12-16T14:45:49;98267.97;;;9.16;100.00
6532;BME280;3299;42.004;24.868;2022-12-16T14:48:35;98260.81;;;9.07;100.00
6532;BME280;3299;42.004;24.868;2022-12-16T14:51:29;98242.69;;;8.82;100.00
6532;BME280;3299;42.004;24.868;2022-12-16T14:54:35;98272.88;;;8.94;100.00
6532;BME280;3299;42.004;24.868;2022-12-16T14:57:23;98228.78;;;8.58;100.00
6532;BME280;3299;42.004;24.868;2022-12-16T15:05:48;98295.31;;;9.19;100.00
6532;BME280;3299;42.004;24.868;2022-12-16T15:08:35;98243.47;;;8.97;100.00
6532;BME280;3299;42.004;24.868;2022-12-16T15:11:21;98285.75;;;9.33;100.00
6532;BME280;3299;42.004;24.868;2022-12-16T15:14:11;98247.81;;;9.09;100.00
6532;BME280;3299;42.004;24.868;2022-12-16T15:16:58;98308.59;;;9.39;100.00
6532;BME280;3299;42.004;24.868;2022-12-16T15:19:45;98213.69;;;8.91;100.00
6532;BME280;3299;42.004;24.868;2022-12-16T15:22:30;98285.16;;;9.42;100.00
6532;BME280;3299;42.004;24.868;2022-12-16T15:25:20;98304.41;;;9.63;100.00
6532;BME280;3299;42.004;24.868;2022-12-16T15:28:22;98304.69;;;9.58;100.00
6532;BME280;3299;42.004;24.868;2022-12-16T15:31:13;98243.41;;;9.23;100.00
6532;BME280;3299;42.004;24.868;2022-12-16T15:34:28;98293.09;;;9.39;100.00
6532;BME280;3299;42.004;24.868;2022-12-16T15:37:27;98257.31;;;9.08;100.00
6532;BME280;3299;42.004;24.868;2022-12-16T15:40:27;98272.22;;;9.17;100.00
6532;BME280;3299;42.004;24.868;2022-12-16T15:43:30;98303.59;;;9.24;100.00
6532;BME280;3299;42.004;24.868;2022-12-16T15:46:25;98316.28;;;9.14;100.00
6532;BME280;3299;42.004;24.868;2022-12-16T15:52:33;98319.97;;;9.10;100.00
6532;BME280;3299;42.004;24.868;2022-12-16T15:58:39;98291.59;;;8.84;100.00
6532;BME280;3299;42.004;24.868;2022-12-16T16:01:25;98321.97;;;8.93;100.00
6532;BME280;3299;42.004;24.868;2022-12-16T16:07:02;98225.28;;;8.45;100.00
6532;BME280;3299;42.004;24.868;2022-12-16T16:09:46;98271.34;;;8.78;100.00
6532;BME280;3299;42.004;24.868;2022-12-16T16:12:30;98234.75;;;8.59;100.00
6532;BME280;3299;42.004;24.868;2022-12-16T16:15:14;98326.59;;;9.14;100.00
6532;BME280;3299;42.004;24.868;2022-12-16T16:18:00;98339.66;;;9.25;100.00
6532;BME280;3299;42.004;24.868;2022-12-16T16:20:46;98322.59;;;9.23;100.00
6532;BME280;3299;42.004;24.868;2022-12-16T16:23:30;98282.34;;;8.94;100.00
6532;BME280;3299;42.004;24.868;2022-12-16T16:26:17;98304.13;;;9.16;100.00
6532;BME280;3299;42.004;24.868;2022-12-16T16:29:02;98313.81;;;9.25;100.00
6532;BME280;3299;42.004;24.868;2022-12-16T16:31:46;98289.84;;;9.11;100.00
6532;BME280;3299;42.004;24.868;2022-12-16T16:34:30;98337.75;;;9.41;100.00
6532;BME280;3299;42.004;24.868;2022-12-16T16:37:15;98338.19;;;9.21;100.00
6532;BME280;3299;42.004;24.868;2022-12-16T16:40:00;98291.34;;;9.01;100.00
6532;BME280;3299;42.004;24.868;2022-12-16T16:42:44;98337.78;;;9.27;100.00
6532;BME280;3299;42.004;24.868;2022-12-16T16:45:28;98303.38;;;9.14;100.00
6532;BME280;3299;42.004;24.868;2022-12-16T16:48:14;98343.84;;;9.40;100.00
6532;BME280;3299;42.004;24.868;2022-12-16T16:51:00;98332.22;;;9.33;100.00
6532;BME280;3299;42.004;24.868;2022-12-16T16:53:44;98316.50;;;9.24;100.00